Flight Track Log - Related Links

Times and Time Zones

All times are in EDT time to prevent confusion due to time zone crossing. See the QFA1051 flight status page for this flight to view local times or setup timezone preferences in your user account.


Time Position Orientation Groundspeed Altitude Reporting Facility
EDT Latitude Longitude Course Direction KTS MPH feet Rate Location/Type
Wed 12:19:57 AM -17.9496 122.2277 143° Southeast 37,000  Level Aus ATC (Calculated)
Wed 12:20:57 AM -18.0673 122.3165 143° Southeast 37,000 16 Level Aus ATC (Calculated)
Wed 12:22:00 AM -18.1763 122.3989 144° Southeast  Level FlightAware Approximate
Wed 12:23:00 AM -18.2800 122.4774 144° Southeast  Level FlightAware Approximate
Wed 12:23:27 AM -18.2953 122.4889 143° Southeast 37,000  Level Aus ATC (Calculated)
Wed 12:23:57 AM -18.3487 122.5294 143° Southeast 37,000 16 Level Aus ATC (Calculated)
Wed 12:25:00 AM -18.4566 122.6113 144° Southeast  Level FlightAware Approximate
Wed 12:25:10 AM -18.4538 122.6092 143° Southeast 37,000  Level Aus ATC (Calculated)
Wed 12:26:26 AM -18.6065 122.7253 143° Southeast 37,000 16 Level Aus ATC (Calculated)
Wed 12:28:00 AM -18.7681 122.8484 144° Southeast  Level FlightAware Approximate
Wed 12:28:39 AM -18.8004 122.8731 143° Southeast 37,000  Level Aus ATC (Calculated)
Wed 12:29:26 AM -18.8913 122.9425 143° Southeast 37,000 17 Level Aus ATC (Calculated)
Wed 12:30:00 AM -18.9396 122.9794 144° Southeast  Level FlightAware Approximate
Wed 12:30:48 AM -19.0233 123.0435 143° Southeast 37,000  Level Aus ATC (Calculated)
Wed 12:31:01 AM -19.0233 123.0435 143° Southeast 37,000 17 Level Aus ATC (Calculated)
Wed 12:32:08 AM -19.1490 123.1399 143° Southeast 37,000 17 Level Aus ATC (Calculated)
Wed 12:32:25 AM -19.1490 123.1399 143° Southeast 37,000 17 Level Aus ATC (Calculated)
Wed 12:34:00 AM -19.3120 123.2652 144° Southeast  Level FlightAware Approximate
Wed 12:34:48 AM -19.4608 123.3797 143° Southeast 37,000  Level Aus ATC (Calculated)
Wed 12:35:00 AM -19.4149 123.3444 144° Southeast  Level FlightAware Approximate
Wed 12:35:20 AM -19.5308 123.4337 142° Southeast 37,000  Level Aus ATC (Calculated)
Wed 12:37:00 AM -19.7022 123.5662 144° Southeast  Level FlightAware Approximate
Wed 12:38:00 AM -19.8050 123.6458 144° Southeast  Level FlightAware Approximate
Wed 12:38:15 AM -19.8021 123.6435 142° Southeast 37,000  Level Aus ATC (Calculated)
Wed 12:39:32 AM -19.9207 123.7355 142° Southeast 37,000 18 Level Aus ATC (Calculated)
Wed 12:40:00 AM -19.9819 123.7831 144° Southeast  Level FlightAware Approximate
Wed 12:41:00 AM -20.0720 123.8532 144° Southeast  Level FlightAware Approximate
Wed 12:42:00 AM -20.1751 123.9335 144° Southeast  Level FlightAware Approximate
Wed 12:42:25 AM -20.2453 123.9883 142° Southeast 37,000  Level Aus ATC (Calculated)
Wed 12:43:14 AM -20.3360 124.0592 142° Southeast 37,000 19 Level Aus ATC (Calculated)
Wed 12:45:00 AM -20.5180 124.2017 144° Southeast  Level FlightAware Approximate
Wed 12:46:00 AM -20.6210 124.2825 144° Southeast  Level FlightAware Approximate
Wed 12:47:00 AM -20.7239 124.3635 144° Southeast  Level FlightAware Approximate
Wed 12:47:00 AM -20.7185 124.3592 142° Southeast 37,000  Level Aus ATC (Calculated)
Wed 12:48:00 AM -20.8214 124.4403 144° Southeast  Level FlightAware Approximate
Wed 12:48:14 AM -20.8406 124.4554 142° Southeast 37,000  Level Aus ATC (Calculated)
Wed 12:49:15 AM -20.9474 124.5397 142° Southeast 37,000 20 Level Aus ATC (Calculated)
Wed 12:51:00 AM -21.1331 124.6866 144° Southeast  Level FlightAware Approximate
Wed 12:52:00 AM -21.2392 124.7707 144° Southeast  Level FlightAware Approximate
Wed 12:53:00 AM -21.3452 124.8550 144° Southeast  Level FlightAware Approximate
Wed 12:53:13 AM -21.3208 124.8356 142° Southeast 37,000  Level Aus ATC (Calculated)
Wed 12:55:00 AM -21.5038 124.9813 143° Southeast  Level FlightAware Approximate
Wed 12:56:00 AM -21.6064 125.0632 143° Southeast  Level FlightAware Approximate
Wed 12:56:00 AM -21.6005 125.0584 142° Southeast 37,000  Level Aus ATC (Calculated)
Wed 12:57:00 AM -21.7030 125.1404 143° Southeast  Level FlightAware Approximate
Wed 12:57:02 AM -21.6936 125.1329 142° Southeast 39,000  Level Aus ATC (Calculated)
Wed 12:59:00 AM -21.4423 125.1329 North  Level FlightAware Approximate
Wed 01:00:00 AM -21.5701 125.1329 180° South  Level FlightAware Approximate
Wed 01:01:00 AM -21.6978 125.1329 180° South  Level FlightAware Approximate
Wed 01:01:52 AM -22.2176 125.5530 141° Southeast 39,000  Level Aus ATC (Calculated)
Wed 01:01:52 AM -22.2176 125.5530 141° Southeast 39,000 Level Aus ATC (Calculated)
Wed 01:02:00 AM -21.5701 125.1329 North  Level FlightAware Approximate
Wed 01:03:00 AM -22.1015 125.4596 323° Northwest  Level FlightAware Approximate
Wed 01:04:00 AM -21.9990 125.3773 323° Northwest  Level FlightAware Approximate
Wed 01:05:00 AM -22.5115 125.8469 143° Southeast  Level Estimated
Wed 01:06:00 AM -22.6168 125.9254 145° Southeast  Level FlightAware Approximate
Wed 01:06:57 AM -22.7927 126.0188 141° Southeast 39,000  Level Aus ATC (Calculated)
Wed 01:07:00 AM -22.7220 126.0039 145° Southeast  Level FlightAware Approximate
Wed 01:08:00 AM -22.9000 126.1062 143° Southeast  Level FlightAware Approximate
Wed 01:09:00 AM -23.0021 126.1896 143° Southeast  Level FlightAware Approximate
Wed 01:09:00 AM -23.0537 126.2317 141° Southeast 39,000  Level Aus ATC (Calculated)
Wed 01:09:03 AM -23.0537 126.2317 141° Southeast 39,000 Level Aus ATC (Calculated)
Wed 01:11:00 AM -23.2526 126.3949 143° Southeast  Level FlightAware Approximate
Wed 01:11:27 AM -23.3143 126.4455 141° Southeast 39,000  Level Aus ATC (Calculated)
Wed 01:12:03 AM -23.3664 126.4884 141° Southeast 39,000 Level Aus ATC (Calculated)
Wed 01:13:01 AM -23.4923 126.5922 141° Southeast 39,000 Level Aus ATC (Calculated)
Wed 01:15:00 AM -23.2892 126.4249 323° Northwest  Level FlightAware Approximate
Wed 01:16:00 AM -23.3916 126.5092 143° Southeast  Level FlightAware Approximate
Wed 01:16:26 AM -23.8694 126.9046 140° Southeast 39,000  Level Aus ATC (Calculated)
Wed 01:18:00 AM -23.7093 126.7717 323° Northwest  Level FlightAware Approximate
Wed 01:19:00 AM -23.6070 126.6870 323° Northwest  Level FlightAware Approximate
Wed 01:20:00 AM -23.5047 126.6024 323° Northwest  Level FlightAware Approximate
Wed 01:20:11 AM -24.3086 127.2714 140° Southeast 39,000  Level Aus ATC (Calculated)
Wed 01:22:00 AM -24.1233 127.1162 323° Northwest  Level FlightAware Approximate
Wed 01:23:00 AM -24.2156 127.2140 143° Southeast  Level Estimated
Wed 01:24:00 AM -24.3235 127.2902 147° Southeast  Level FlightAware Approximate
Wed 01:25:00 AM -24.4314 127.3666 147° Southeast  Level FlightAware Approximate
Wed 01:25:10 AM -24.7868 127.6745 140° Southeast 39,000  Level Aus ATC (Calculated)
Wed 01:26:00 AM -24.3235 127.2902 327° Northwest  Level FlightAware Approximate
Wed 01:26:42 AM -24.9647 127.8255 140° Southeast 39,000  Level Aus ATC (Calculated)
Wed 01:27:00 AM -24.6002 127.5168 322° Northwest  Level FlightAware Approximate
Wed 01:28:00 AM -24.8325 127.7132 322° Northwest  Level FlightAware Approximate
Wed 01:28:11 AM -25.1423 127.9769 140° Southeast 39,000  Level Aus ATC (Calculated)
Wed 01:28:30 AM -25.1423 127.9769 140° Southeast 39,000 Level Aus ATC (Calculated)
Wed 01:30:00 AM -24.9892 127.8464 322° Northwest  Level FlightAware Approximate
Wed 01:30:42 AM -25.3790 128.1794 139° Southeast 39,000  Level Aus ATC (Calculated)
Wed 01:31:00 AM -24.8871 127.7596 322° Northwest  Level FlightAware Approximate
Wed 01:32:00 AM -25.4975 128.3106 143° Southeast  Level Estimated
Wed 01:33:00 AM -25.6010 128.3958 143° Southeast  Level FlightAware Approximate
Wed 01:33:24 AM -25.6744 128.4336 139° Southeast 39,000  Level Aus ATC (Calculated)
Wed 01:35:00 AM -25.8371 128.5744 142° Southeast  Level FlightAware Approximate
Wed 01:35:19 AM -25.8514 128.5868 139° Southeast 39,000  Level Aus ATC (Calculated)
Wed 01:37:00 AM -26.0225 128.7353 142° Southeast  Level FlightAware Approximate
Wed 01:37:04 AM -26.0872 128.7917 139° Southeast 39,000  Level Aus ATC (Calculated)
Wed 01:39:00 AM -26.2834 128.9630 142° Southeast  Level FlightAware Approximate
Wed 01:40:00 AM -26.1819 128.8743 322° Northwest  Level FlightAware Approximate
Wed 01:41:00 AM -26.2834 128.9630 142° Southeast  Level FlightAware Approximate
Wed 01:42:00 AM -26.1819 128.8743 322° Northwest  Level FlightAware Approximate
Wed 01:42:03 AM -26.5457 129.2224 139° Southeast 39,000  Level Aus ATC (Calculated)
Wed 01:44:00 AM -26.3569 129.0370 319° Northwest  Level FlightAware Approximate
Wed 01:45:00 AM -26.2600 128.9421 319° Northwest  Level FlightAware Approximate
Wed 01:46:00 AM -26.3568 129.0371 139° Southeast  Level FlightAware Approximate
Wed 01:47:00 AM -26.2600 128.9421 319° Northwest  Level FlightAware Approximate
Wed 01:47:03 AM -27.1078 129.7795 138° Southeast 39,000  Level Aus ATC (Calculated)
Wed 01:49:00 AM -26.9153 129.5879 318° Northwest  Level FlightAware Approximate
Wed 01:50:00 AM -26.8165 129.4899 318° Northwest  Level FlightAware Approximate
Wed 01:51:00 AM -26.9079 129.5966 139° Southeast  Level Estimated
Wed 01:52:00 AM -27.0070 129.6942 139° Southeast  Level FlightAware Approximate
Wed 01:52:02 AM -27.5978 130.2715 138° Southeast 39,000  Level Aus ATC (Calculated)
Wed 01:54:00 AM -27.7866 130.4627 138° Southeast  Level FlightAware Approximate
Wed 01:54:54 AM -27.8770 130.5546 138° Southeast 39,000  Level Aus ATC (Calculated)
Wed 01:55:00 AM -27.8825 130.5602 138° Southeast  Level FlightAware Approximate
Wed 01:56:00 AM -27.9824 130.6620 138° Southeast  Level FlightAware Approximate
Wed 01:56:06 AM -28.0164 130.6967 138° Southeast 39,000  Level Aus ATC (Calculated)
Wed 01:56:47 AM -28.0860 130.7679 138° Southeast 39,000 Level Aus ATC (Calculated)
Wed 01:56:57 AM -28.0860 130.7679 138° Southeast 39,000 Level Aus ATC (Calculated)
Wed 01:58:00 AM -28.1865 130.8708 138° Southeast  Level FlightAware Approximate
Wed 01:59:00 AM -28.2821 130.9690 138° Southeast  Level FlightAware Approximate
Wed 01:59:07 AM -28.2947 130.9820 138° Southeast 39,000  Level Aus ATC (Calculated)
Wed 01:59:36 AM -28.3642 131.0535 138° Southeast 39,000 Level Aus ATC (Calculated)
Wed 02:00:17 AM -28.4336 131.1252 138° Southeast 39,000 Level Aus ATC (Calculated)
Wed 02:00:32 AM -28.4336 131.1252 138° Southeast 39,000 Level Aus ATC (Calculated)
Wed 02:02:00 AM -28.5735 131.2699 138° Southeast  Level FlightAware Approximate
Wed 02:03:00 AM -28.4781 131.1712 318° Northwest  Level FlightAware Approximate
Wed 02:03:11 AM -28.7221 131.4243 138° Southeast 39,000  Level Aus ATC (Calculated)
Wed 02:03:11 AM -28.7221 131.4243 138° Southeast 39,000 Level Aus ATC (Calculated)
Wed 02:05:00 AM -28.5490 131.2445 318° Northwest  Level FlightAware Approximate
Wed 02:06:00 AM -28.4536 131.1458 318° Northwest  Level FlightAware Approximate
Wed 02:07:00 AM -28.5490 131.2445 138° Southeast  Level FlightAware Approximate
Wed 02:07:01 AM -29.0865 131.8055 137° Southeast 39,000  Level Aus ATC (Calculated)
Wed 02:09:00 AM -28.8980 131.6078 317° Northwest  Level FlightAware Approximate
Wed 02:10:00 AM -28.8029 131.5085 318° Northwest  Level FlightAware Approximate
Wed 02:10:16 AM -29.3771 132.1123 137° Southeast 39,000  Level Aus ATC (Calculated)
Wed 02:11:23 AM -29.5222 132.2664 137° Southeast 39,000 Level Aus ATC (Calculated)
Wed 02:12:00 AM -29.2129 131.9386 317° Northwest  Level FlightAware Approximate
Wed 02:12:23 AM -29.5947 132.3436 137° Southeast 39,000  Level Aus ATC (Calculated)
Wed 02:14:00 AM -29.4417 132.1808 317° Northwest  Level FlightAware Approximate
Wed 02:15:00 AM -29.3470 132.0804 317° Northwest  Level FlightAware Approximate
Wed 02:15:15 AM -29.8841 132.6535 137° Southeast 39,000  Level Aus ATC (Calculated)
Wed 02:17:00 AM -29.7197 132.4771 317° Northwest  Level FlightAware Approximate
Wed 02:18:00 AM -29.8039 132.5887 138° Southeast  Level Estimated
Wed 02:19:00 AM -29.8986 132.6885 138° Southeast  Level FlightAware Approximate
Wed 02:19:07 AM -30.2448 133.0434 137° Southeast 39,000  Level Aus ATC (Calculated)
Wed 02:20:15 AM -30.3887 133.2001 137° Southeast 39,000 10 Level Aus ATC (Calculated)
Wed 02:22:00 AM -30.5522 133.3789 137° Southeast  Level FlightAware Approximate
Wed 02:23:00 AM -30.6454 133.4813 137° Southeast  Level FlightAware Approximate
Wed 02:24:00 AM -30.7386 133.5839 137° Southeast  Level FlightAware Approximate
Wed 02:24:00 AM -30.7477 133.5940 137° Southeast 39,000  Level Aus ATC (Calculated)
Wed 02:25:00 AM -30.8409 133.6968 137° Southeast  Level FlightAware Approximate
Wed 02:26:00 AM -30.7477 133.5940 316° Northwest  Level FlightAware Approximate
Wed 02:27:00 AM -30.8409 133.6968 137° Southeast  Level FlightAware Approximate
Wed 02:28:00 AM -30.7477 133.5940 316° Northwest  Level FlightAware Approximate
Wed 02:28:59 AM -31.1681 134.0607 136° Southeast 39,000  Level Aus ATC (Calculated)
Wed 02:29:00 AM -30.8409 133.6968 137° Southeast  Level FlightAware Approximate
Wed 02:30:00 AM -31.0737 133.9554 316° Northwest  Level FlightAware Approximate
Wed 02:31:00 AM -30.9808 133.8520 316° Northwest  Level FlightAware Approximate
Wed 02:32:00 AM -30.8878 133.7488 316° Northwest  Level FlightAware Approximate
Wed 02:33:00 AM -30.7948 133.6459 316° Northwest  Level FlightAware Approximate
Wed 02:33:59 AM -31.6542 134.6080 136° Southeast 39,000  Level Aus ATC (Calculated)
Wed 02:34:00 AM -30.8878 133.7488 136° Southeast  Level FlightAware Approximate
Wed 02:35:00 AM -31.5603 134.5016 316° Northwest  Level FlightAware Approximate
Wed 02:36:00 AM -31.4678 134.3972 316° Northwest  Level FlightAware Approximate
Wed 02:37:00 AM -31.3753 134.2929 316° Northwest  Level FlightAware Approximate
Wed 02:38:00 AM -31.2826 134.1889 316° Northwest  Level FlightAware Approximate
Wed 02:38:33 AM -32.1398 135.1617 316° Northwest 479 551 39,200  Level Aus ATC (RADAR)
Wed 02:39:13 AM -32.2013 135.2321 136° Southeast 464 534 39,200  Level Aus ATC (RADAR)
Wed 02:39:48 AM -32.2578 135.2908 139° Southeast 465 535 39,200  Level Aus ATC (RADAR)
Wed 02:40:33 AM -32.3244 135.3727 134° Southeast 464 534 39,200  Level Aus ATC (RADAR)
Wed 02:40:58 AM -32.3617 135.4178 134° Southeast 463 533 39,200  Level Aus ATC (RADAR)
Wed 02:41:33 AM -32.4139 135.4811 134° Southeast 463 533 39,200  Level Aus ATC (RADAR)
Wed 02:42:28 AM -32.4981 135.5788 136° Southeast 465 535 39,200  Level Aus ATC (RADAR)
Wed 02:42:53 AM -32.5361 135.6231 136° Southeast 463 533 39,200  Level Aus ATC (RADAR)
Wed 02:43:28 AM -32.5905 135.6843 137° Southeast 464 534 39,200  Level Aus ATC (RADAR)
Wed 02:44:18 AM -32.6668 135.7732 136° Southeast 463 533 39,200  Level Aus ATC (RADAR)
Wed 02:44:53 AM -32.7152 135.8410 130° Southeast 466 536 39,200  Level Aus ATC (RADAR)
Wed 02:45:43 AM -32.7958 135.9243 139° Southeast 463 533 39,200 -203 Level Aus ATC (RADAR)
Wed 02:45:52 AM -32.8060 135.9400 122° Southeast 466 536 39,000  Descending FlightAware ADS-B
Wed 02:46:07 AM -32.8322 135.9717 132° Southeast 466 536 39,200 240 Climbing Aus ATC (RADAR)
Wed 02:46:42 AM -32.8736 136.0495 122° Southeast 472 543 39,200 -200 Level Aus ATC (RADAR)
Wed 02:47:07 AM -32.8980 136.0920 126° Southeast 471 542 39,000 -185 Descending FlightAware ADS-B
Wed 02:47:47 AM -32.9470 136.1800 124° Southeast 471 542 39,000 171 Level FlightAware ADS-B
Wed 02:48:17 AM -32.9907 136.2548 124° Southeast 475 547 39,200 185 Climbing Aus ATC (RADAR)
Wed 02:48:52 AM -33.0339 136.3300 124° Southeast 474 545 39,200 -141 Level Aus ATC (RADAR)
Wed 02:49:42 AM -33.0890 136.4270 124° Southeast 471 542 39,000  Descending FlightAware ADS-B
Wed 02:50:12 AM -33.1320 136.5035 124° Southeast 476 548 39,200  Climbing Aus ATC (RADAR)
Wed 02:50:22 AM -33.1390 136.5160 124° Southeast 471 542 39,000  Descending FlightAware ADS-B
Wed 02:51:02 AM -33.1943 136.6109 124° Southeast 475 547 39,200  Climbing Aus ATC (RADAR)
Wed 02:51:07 AM -33.1940 136.6140 124° Southeast 472 543 39,000  Descending FlightAware ADS-B
Wed 02:51:27 AM -33.2242 136.6661 124° Southeast 475 547 39,200  Climbing Aus ATC (RADAR)
Wed 02:51:47 AM -33.2430 136.7000 124° Southeast 471 542 39,000 -218 Descending FlightAware ADS-B
Wed 02:52:22 AM -33.2840 136.7740 124° Southeast 470 541 39,000 171 Level FlightAware ADS-B
Wed 02:52:57 AM -33.3335 136.8619 124° Southeast 475 547 39,200 218 Climbing Aus ATC (RADAR)
Wed 02:53:17 AM -33.3577 136.9051 124° Southeast 472 543 39,200 -400 Level Aus ATC (RADAR)
Wed 02:53:27 AM -33.3640 136.9160 124° Southeast 471 542 39,000  Descending FlightAware ADS-B
Wed 02:53:52 AM -33.3996 136.9810 124° Southeast 471 542 39,200  Climbing Aus ATC (RADAR)
Wed 02:54:07 AM -33.4140 137.0060 124° Southeast 469 540 39,000  Descending FlightAware ADS-B
Wed 02:54:41 AM -33.4588 137.0889 124° Southeast 465 535 39,200  Climbing Aus ATC (RADAR)
Wed 02:54:47 AM -33.4610 137.0900 124° Southeast 467 537 39,000  Descending FlightAware ADS-B
Wed 02:55:16 AM -33.5022 137.1626 124° Southeast 464 534 39,200  Climbing Aus ATC (RADAR)
Wed 02:55:27 AM -33.5090 137.1760 124° Southeast 467 537 39,000  Descending FlightAware ADS-B
Wed 02:56:02 AM -33.5560 137.2602 124° Southeast 468 539 39,200  Climbing Aus ATC (RADAR)
Wed 02:56:12 AM -33.5620 137.2710 124° Southeast 468 539 39,000 -240 Descending FlightAware ADS-B
Wed 02:56:52 AM -33.6110 137.3600 123° Southeast 470 541 39,000  Level FlightAware ADS-B
Wed 02:57:37 AM -33.6660 137.4590 124° Southeast 472 543 39,000 162 Level FlightAware ADS-B
Wed 02:58:06 AM -33.7056 137.5317 124° Southeast 471 542 39,200  Climbing Aus ATC (RADAR)
Wed 02:58:17 AM -33.7130 137.5450 124° Southeast 472 543 39,000 -235 Descending FlightAware ADS-B
Wed 02:58:57 AM -33.7620 137.6330 124° Southeast 472 543 39,000  Level FlightAware ADS-B
Wed 02:59:42 AM -33.8160 137.7320 123° Southeast 473 544 39,000  Level FlightAware ADS-B
Wed 03:00:22 AM -33.8630 137.8180 123° Southeast 473 544 39,000  Level FlightAware ADS-B
Wed 03:01:07 AM -33.9180 137.9180 124° Southeast 473 544 39,000 162 Level FlightAware ADS-B
Wed 03:01:36 AM -33.9573 137.9919 124° Southeast 472 543 39,200  Climbing Aus ATC (RADAR)
Wed 03:01:47 AM -33.9630 138.0020 124° Southeast 473 544 39,000 -235 Descending FlightAware ADS-B
Wed 03:02:27 AM -34.0150 138.0980 123° Southeast 472 543 39,000 152 Level FlightAware ADS-B
Wed 03:03:06 AM -34.0644 138.1899 123° Southeast 471 542 39,200  Climbing Aus ATC (RADAR)
Wed 03:03:07 AM -34.0610 138.1830 123° Southeast 472 543 39,000 -261 Descending FlightAware ADS-B
Wed 03:03:52 AM -34.1160 138.2840 123° Southeast 472 543 39,000  Level FlightAware ADS-B
Wed 03:04:37 AM -34.1690 138.3840 123° Southeast 472 543 39,000  Level FlightAware ADS-B
Wed 03:05:17 AM -34.2150 138.4680 124° Southeast 472 543 39,000  Level FlightAware ADS-B
Wed 03:06:02 AM -34.2690 138.5690 123° Southeast 465 535 39,000 164 Level FlightAware ADS-B
Wed 03:06:30 AM -34.3067 138.6415 123° Southeast 468 539 39,200  Climbing Aus ATC (RADAR)
Wed 03:06:42 AM -34.3150 138.6560 123° Southeast 463 533 39,000  Descending FlightAware ADS-B
Wed 03:07:05 AM -34.3475 138.7181 123° Southeast 465 535 39,200  Climbing Aus ATC (RADAR)
Wed 03:07:22 AM -34.3630 138.7450 123° Southeast 462 532 39,000  Descending FlightAware ADS-B
Wed 03:08:00 AM -34.4116 138.8387 123° Southeast 466 536 39,200  Climbing Aus ATC (RADAR)
Wed 03:08:07 AM -34.4170 138.8470 123° Southeast 461 531 39,000  Descending FlightAware ADS-B
Wed 03:08:25 AM -34.4408 138.8932 123° Southeast 465 535 39,200  Climbing Aus ATC (RADAR)
Wed 03:08:47 AM -34.4620 138.9320 123° Southeast 459 528 39,000 -194 Descending FlightAware ADS-B
Wed 03:09:27 AM -34.5080 139.0190 123° Southeast 459 528 39,000  Level FlightAware ADS-B
Wed 03:10:12 AM -34.5600 139.1170 123° Southeast 458 527 39,000  Level FlightAware ADS-B
Wed 03:10:52 AM -34.6060 139.2060 122° Southeast 457 526 39,000 176 Level FlightAware ADS-B
Wed 03:11:20 AM -34.6417 139.2750 122° Southeast 460 529 39,200  Climbing Aus ATC (RADAR)
Wed 03:11:37 AM -34.6570 139.3020 122° Southeast 456 525 39,000  Descending FlightAware ADS-B
Wed 03:11:55 AM -34.6821 139.3514 122° Southeast 461 531 39,200  Climbing Aus ATC (RADAR)
Wed 03:12:17 AM -34.7040 139.3920 122° Southeast 461 531 39,000 -179 Descending FlightAware ADS-B
Wed 03:13:02 AM -34.7550 139.4890 123° Southeast 457 526 39,000 179 Level FlightAware ADS-B
Wed 03:13:24 AM -34.7847 139.5475 123° Southeast 459 528 39,200  Climbing Aus ATC (RADAR)
Wed 03:13:42 AM -34.8000 139.5760 123° Southeast 458 527 39,000  Descending FlightAware ADS-B
Wed 03:13:59 AM -34.8243 139.6244 123° Southeast 460 529 39,200  Climbing Aus ATC (RADAR)
Wed 03:14:27 AM -34.8520 139.6760 123° Southeast 460 529 39,000  Descending FlightAware ADS-B
Wed 03:14:49 AM -34.8815 139.7345 123° Southeast 461 531 39,200  Climbing Aus ATC (RADAR)
Wed 03:15:07 AM -34.8970 139.7640 123° Southeast 460 529 39,000  Descending FlightAware ADS-B
Wed 03:15:24 AM -34.9216 139.8115 123° Southeast 462 532 39,200  Climbing Aus ATC (RADAR)
Wed 03:15:47 AM -34.9430 139.8530 123° Southeast 463 533 39,000  Descending FlightAware ADS-B
Wed 03:16:09 AM -34.9729 139.9109 123° Southeast 462 532 39,200  Climbing Aus ATC (RADAR)
Wed 03:16:32 AM -34.9940 139.9520 123° Southeast 460 529 39,000 -190 Descending FlightAware ADS-B
Wed 03:17:12 AM -35.0420 140.0440 123° Southeast 464 534 39,000  Level FlightAware ADS-B
Wed 03:17:52 AM -35.0880 140.1350 122° Southeast 464 534 39,000 194 Level FlightAware ADS-B
Wed 03:18:14 AM -35.1147 140.1877 122° Southeast 463 533 39,200  Climbing Aus ATC (RADAR)
Wed 03:18:37 AM -35.1380 140.2330 122° Southeast 465 535 39,000  Descending FlightAware ADS-B
Wed 03:19:13 AM -35.1830 140.3211 122° Southeast 464 534 39,200  Climbing Aus ATC (RADAR)
Wed 03:19:32 AM -35.1910 140.3390 122° Southeast 461 531 39,000  Descending FlightAware ADS-B
Wed 03:19:53 AM -35.2285 140.4105 122° Southeast 465 535 39,200  Climbing Aus ATC (RADAR)
Wed 03:20:12 AM -35.2280 140.4150 122° Southeast 461 531 39,000  Descending FlightAware ADS-B
Wed 03:20:28 AM -35.2683 140.4885 122° Southeast 464 534 39,200  Climbing Aus ATC (RADAR)
Wed 03:20:52 AM -35.2650 140.4910 122° Southeast 461 531 39,000  Descending FlightAware ADS-B
Wed 03:21:13 AM -35.3187 140.5890 122° Southeast 462 532 39,200 261 Climbing Aus ATC (RADAR)
Wed 03:21:38 AM -35.3469 140.6448 122° Southeast 462 532 39,200  Level Aus ATC (RADAR)
Wed 03:22:18 AM -35.3917 140.7342 122° Southeast 461 531 39,200 -143 Level Aus ATC (RADAR)
Wed 03:23:02 AM -35.4370 140.8230 122° Southeast 464 534 39,000  Descending FlightAware ADS-B
Wed 03:23:28 AM -35.4705 140.8903 122° Southeast 462 532 39,200  Climbing Aus ATC (RADAR)
Wed 03:23:37 AM -35.4750 140.9000 122° Southeast 464 534 39,000  Descending FlightAware ADS-B
Wed 03:24:08 AM -35.5159 140.9795 122° Southeast 461 531 39,200  Climbing Aus ATC (RADAR)
Wed 03:24:27 AM -35.5320 141.0130 122° Southeast 465 535 39,000  Descending FlightAware ADS-B
Wed 03:24:53 AM -35.5651 141.0814 122° Southeast 463 533 39,200  Climbing Aus ATC (RADAR)
Wed 03:25:12 AM -35.5820 141.1140 122° Southeast 464 534 39,000  Descending FlightAware ADS-B
Wed 03:25:33 AM -35.6106 141.1707 122° Southeast 461 531 39,200 148 Climbing Aus ATC (RADAR)
Wed 03:26:33 AM -35.6755 141.3057 121° Southeast 461 531 39,200  Level Aus ATC (RADAR)
Wed 03:26:58 AM -35.7034 141.3618 122° Southeast 460 529 39,200 -273 Level Aus ATC (RADAR)
Wed 03:27:17 AM -35.7200 141.3930 122° Southeast 463 533 39,000  Descending FlightAware ADS-B
Wed 03:27:52 AM -35.7641 141.4854 122° Southeast 460 529 39,200 185 Climbing Aus ATC (RADAR)
Wed 03:28:22 AM -35.7976 141.5524 122° Southeast 459 528 39,200  Level Aus ATC (RADAR)
Wed 03:28:47 AM -35.8249 141.6087 121° Southeast 458 527 39,200  Level Aus ATC (RADAR)
Wed 03:29:22 AM -35.8626 141.6873 121° Southeast 456 525 39,200  Level Aus ATC (RADAR)
Wed 03:30:07 AM -35.9130 141.7875 122° Southeast 457 526 39,200  Level Aus ATC (RADAR)
Wed 03:30:47 AM -35.9564 141.8770 121° Southeast 454 522 39,200 -185 Level Aus ATC (RADAR)
Wed 03:31:12 AM -35.9770 141.9180 121° Southeast 454 522 39,000  Descending FlightAware ADS-B
Wed 03:31:37 AM -36.0107 141.9888 121° Southeast 454 522 39,200 240 Climbing Aus ATC (RADAR)
Wed 03:32:02 AM -36.0372 142.0450 120° Southeast 453 521 39,200 -343 Level Aus ATC (RADAR)
Wed 03:32:12 AM -36.0420 142.0520 120° Southeast 454 522 39,000  Descending FlightAware ADS-B
Wed 03:32:57 AM -36.0970 142.1680 120° Southeast 454 522 39,200  Climbing Aus ATC (RADAR)
Wed 03:33:12 AM -36.1080 142.1880 120° Southeast 454 522 39,000 171 Descending FlightAware ADS-B
Wed 03:33:32 AM -36.1352 142.2465 120° Southeast 456 525 39,300 450 Climbing Aus ATC (RADAR)
Wed 03:33:52 AM -36.1561 142.2919 120° Southeast 455 524 39,300 -450 Level Aus ATC (RADAR)
Wed 03:34:12 AM -36.1730 142.3230 120° Southeast 456 525 39,000  Descending FlightAware ADS-B
Wed 03:34:27 AM -36.1940 142.3711 120° Southeast 458 527 39,300  Climbing Aus ATC (RADAR)
Wed 03:34:57 AM -36.2220 142.4250 120° Southeast 459 528 39,000  Descending FlightAware ADS-B
Wed 03:35:22 AM -36.2546 142.4956 120° Southeast 460 529 39,300  Climbing Aus ATC (RADAR)
Wed 03:35:42 AM -36.2710 142.5280 120° Southeast 463 533 39,000 -300 Descending FlightAware ADS-B
Wed 03:36:22 AM -36.3150 142.6210 120° Southeast 468 539 39,000 327 Level FlightAware ADS-B
Wed 03:36:37 AM -36.3368 142.6682 120° Southeast 464 534 39,300  Climbing Aus ATC (RADAR)
Wed 03:37:02 AM -36.3600 142.7140 120° Southeast 466 536 39,000  Descending FlightAware ADS-B
Wed 03:37:41 AM -36.4085 142.8193 120° Southeast 468 539 39,300  Climbing Aus ATC (RADAR)
Wed 03:37:47 AM -36.4090 142.8180 120° Southeast 469 540 39,000 -391 Descending FlightAware ADS-B
Wed 03:38:27 AM -36.4490 142.9160 117° Southeast 478 550 39,000 305 Level FlightAware ADS-B
Wed 03:38:46 AM -36.4696 142.9788 117° Southeast 470 541 39,300 -267 Climbing Aus ATC (RADAR)
Wed 03:39:12 AM -36.4860 143.0300 117° Southeast 474 545 38,800 -1,100 Descending FlightAware ADS-B
Wed 03:39:46 AM -36.5188 143.1281 117° Southeast 456 525 38,200 -1,500 Descending Aus ATC (RADAR)
Wed 03:39:52 AM -36.5190 143.1290 117° Southeast 450 518 37,800 -1,371 Descending FlightAware ADS-B
Wed 03:40:21 AM -36.5452 143.2108 117° Southeast 437 503 37,400 -1,650 Descending Aus ATC (RADAR)
Wed 03:40:32 AM -36.5510 143.2260 117° Southeast 435 501 36,700 -3,429 Descending FlightAware ADS-B
Wed 03:40:56 AM -36.5729 143.2921 117° Southeast 433 498 35,400 -2,800 Descending Aus ATC (RADAR)
Wed 03:41:17 AM -36.5850 143.3260 117° Southeast 438 504 34,600 -2,160 Descending FlightAware ADS-B
Wed 03:41:46 AM -36.6120 143.4072 117° Southeast 426 490 33,600 -2,229 Descending Aus ATC (RADAR)
Wed 03:41:52 AM -36.6110 143.4060 117° Southeast 432 497 33,300 -2,160 Descending FlightAware ADS-B
Wed 03:42:11 AM -36.6305 143.4636 117° Southeast 418 481 32,700 -2,160 Descending Aus ATC (RADAR)
Wed 03:42:42 AM -36.6490 143.5230 117° Southeast 417 480 31,500 -1,775 Descending FlightAware ADS-B
Wed 03:43:22 AM -36.6770 143.6090 112° Southeast 397 457 30,600 -1,406 Descending FlightAware ADS-B
Wed 03:43:46 AM -36.6972 143.6682 112° Southeast 386 444 30,000 -1,800 Descending Aus ATC (RADAR)
Wed 03:44:02 AM -36.7040 143.6900 112° Southeast 387 445 29,400 -2,066 Descending FlightAware ADS-B
Wed 03:44:47 AM -36.7340 143.7840 112° Southeast 378 435 27,900 -1,906 Descending FlightAware ADS-B
Wed 03:45:27 AM -36.7600 143.8650 112° Southeast 371 427 26,700 -1,671 Descending FlightAware ADS-B
Wed 03:46:06 AM -36.7878 143.9489 112° Southeast 359 413 25,700 -1,800 Descending Aus ATC (RADAR)
Wed 03:46:07 AM -36.7850 143.9410 112° Southeast 367 422 25,500 -2,087 Descending FlightAware ADS-B
Wed 03:46:52 AM -36.8140 144.0300 112° Southeast 361 415 24,100 -1,676 Descending FlightAware ADS-B
Wed 03:47:15 AM -36.8312 144.0842 112° Southeast 351 404 23,600 -1,650 Descending Aus ATC (RADAR)
Wed 03:47:32 AM -36.8380 144.1050 112° Southeast 352 405 23,000 -1,800 Descending FlightAware ADS-B
Wed 03:47:55 AM -36.8552 144.1588 112° Southeast 342 394 22,400 -1,867 Descending Aus ATC (RADAR)
Wed 03:48:17 AM -36.8650 144.1900 112° Southeast 344 396 21,600 -1,839 Descending FlightAware ADS-B
Wed 03:48:57 AM -36.8880 144.2620 112° Southeast 336 387 20,500 -1,448 Descending FlightAware ADS-B
Wed 03:49:15 AM -36.9017 144.3039 112° Southeast 328 377 20,200 -1,600 Descending Aus ATC (RADAR)
Wed 03:49:42 AM -36.9130 144.3400 112° Southeast 334 384 19,300 -2,000 Descending FlightAware ADS-B
Wed 03:50:12 AM -36.9340 144.3920 117° Southeast 349 402 18,300 -1,862 Descending FlightAware ADS-B
Wed 03:50:40 AM -36.9699 144.4468 117° Southeast 341 392 17,500 -2,040 Descending Aus ATC (RADAR)
Wed 03:51:02 AM -36.9910 144.4770 117° Southeast 337 388 16,600 -2,060 Descending FlightAware ADS-B
Wed 03:51:47 AM -37.0370 144.5420 132° Southeast 327 376 15,200 -1,588 Descending FlightAware ADS-B
Wed 03:52:10 AM -37.0608 144.5764 132° Southeast 320 368 14,800 -1,650 Descending Aus ATC (RADAR)
Wed 03:52:27 AM -37.0750 144.5970 132° Southeast 319 367 14,100 -1,636 Descending FlightAware ADS-B
Wed 03:53:05 AM -37.1141 144.6528 132° Southeast 312 359 13,300 -1,260 Descending Aus ATC (RADAR)
Wed 03:54:07 AM -37.1700 144.7270 132° Southeast 288 331 12,000 -1,169 Descending FlightAware ADS-B
Wed 03:54:22 AM -37.1890 144.7360 159° South 273 314 11,800 -1,527 Descending FlightAware ADS-B
Wed 03:55:02 AM -37.2390 144.7470 170° South 275 316 10,600 -1,754 Descending FlightAware ADS-B
Wed 03:55:27 AM -37.2680 144.7530 171° South 274 315 9,900 -1,650 Descending FlightAware ADS-B
Wed 03:55:42 AM -37.2890 144.7570 171° South 275 316 9,500 -1,600 Descending FlightAware ADS-B
Wed 03:56:12 AM -37.3280 144.7650 171° South 276 318 8,700 -1,200 Descending FlightAware ADS-B
Wed 03:56:42 AM -37.3650 144.7740 169° South 271 312 8,300 -764 Descending FlightAware ADS-B
Wed 03:57:07 AM -37.3950 144.7820 168° South 272 313 8,000 -600 Descending FlightAware ADS-B
Wed 03:57:22 AM -37.4140 144.7860 171° South 271 312 7,900 -600 Descending FlightAware ADS-B
Wed 03:57:47 AM -37.4440 144.7940 168° South 270 311 7,600 -750 Descending FlightAware ADS-B
Wed 03:58:02 AM -37.4630 144.7980 171° South 269 310 7,400 -800 Descending FlightAware ADS-B
Wed 03:58:32 AM -37.5010 144.8070 169° South 269 310 7,000 -933 Descending FlightAware ADS-B
Wed 03:58:47 AM -37.5200 144.8110 171° South 269 310 6,700 -1,200 Descending FlightAware ADS-B
Wed 03:59:12 AM -37.5490 144.8250 159° South 274 315 6,200 -1,200 Descending FlightAware ADS-B
Wed 03:59:27 AM -37.5600 144.8420 129° Southeast 276 318 5,900 -1,400 Descending FlightAware ADS-B
Wed 03:59:42 AM -37.5650 144.8650 105° East 279 321 5,500 -1,200 Descending FlightAware ADS-B
Wed 04:00:07 AM -37.5670 144.9050 94° East 270 311 5,100 -750 Descending FlightAware ADS-B
Wed 04:00:22 AM -37.5680 144.9300 93° East 261 300 5,000 -533 Descending FlightAware ADS-B
Wed 04:00:52 AM -37.5700 144.9740 93° East 245 282 4,700 -533 Descending FlightAware ADS-B
Wed 04:01:07 AM -37.5730 144.9940 101° East 239 275 4,600 -600 Descending FlightAware ADS-B
Wed 04:01:32 AM -37.5880 145.0220 124° Southeast 226 260 4,300 -750 Descending FlightAware ADS-B
Wed 04:01:47 AM -37.6010 145.0330 146° Southeast 220 253 4,100 -1,000 Descending FlightAware ADS-B
Wed 04:02:02 AM -37.6160 145.0390 162° South 218 251 3,800 -1,200 Descending FlightAware ADS-B
Wed 04:02:12 AM -37.6260 145.0400 175° South 217 250 3,600 -1,200 Descending FlightAware ADS-B
Wed 04:02:42 AM -37.6520 145.0290 199° South 206 237 3,000 -1,200 Descending FlightAware ADS-B
Wed 04:02:57 AM -37.6630 145.0160 223° Southwest 197 227 2,700 -1,000 Descending FlightAware ADS-B
Wed 04:03:12 AM -37.6690 145.0010 243° Southwest 191 220 2,500 -873 Descending FlightAware ADS-B
Wed 04:03:52 AM -37.6690 144.9600 270° West 168 193 1,900 -923 Descending FlightAware ADS-B
Wed 04:04:17 AM -37.6670 144.9370 276° West 150 173 1,500 -933 Descending FlightAware ADS-B
Wed 04:04:37 AM -37.6660 144.9210 275° West 144 166 1,200 -333 Descending FlightAware ADS-B
Wed 04:04:53 AM -37.6651 144.9018 275° West 146 168 1,300 -600 Climbing Aus ATC (RADAR)
Wed 04:04:57 AM -37.6650 144.9030 275° West 146 168 1,000 -1,235 Descending FlightAware ADS-B
Wed 04:05:27 AM -37.6640 144.8790 273° West 144 166 600 -840 Descending FlightAware ADS-B
Wed 04:05:47 AM -37.6630 144.8610 274° West 143 165 300 -667 Descending FlightAware ADS-B
Wed 04:06:12 AM -37.6620 144.8410 274° West 140 161 100 -480 Descending FlightAware ADS-B

Login

Don't have an account? Register now (free) for customized features, flight alerts, and more!